sensor_id;sensor_type;location;lat;lon;timestamp;P1;durP1;ratioP1;P2;durP2;ratioP2
6251;SDS011;3159;52.414;9.784;2023-06-14T00:00:14;3.70;;;2.13;;
6251;SDS011;3159;52.414;9.784;2023-06-14T00:02:41;6.27;;;2.50;;
6251;SDS011;3159;52.414;9.784;2023-06-14T00:05:08;3.90;;;2.47;;
6251;SDS011;3159;52.414;9.784;2023-06-14T00:07:37;3.50;;;2.10;;
6251;SDS011;3159;52.414;9.784;2023-06-14T00:10:07;3.07;;;2.23;;
6251;SDS011;3159;52.414;9.784;2023-06-14T00:12:37;2.67;;;2.10;;
6251;SDS011;3159;52.414;9.784;2023-06-14T00:15:07;2.43;;;2.20;;
6251;SDS011;3159;52.414;9.784;2023-06-14T00:17:40;6.17;;;2.87;;
6251;SDS011;3159;52.414;9.784;2023-06-14T00:20:10;2.90;;;2.17;;
6251;SDS011;3159;52.414;9.784;2023-06-14T00:22:38;2.70;;;2.40;;
6251;SDS011;3159;52.414;9.784;2023-06-14T00:25:05;5.23;;;2.53;;
6251;SDS011;3159;52.414;9.784;2023-06-14T00:27:32;4.90;;;2.47;;
6251;SDS011;3159;52.414;9.784;2023-06-14T00:30:01;3.50;;;1.90;;
6251;SDS011;3159;52.414;9.784;2023-06-14T00:32:27;2.93;;;1.90;;
6251;SDS011;3159;52.414;9.784;2023-06-14T00:34:54;3.03;;;2.23;;
6251;SDS011;3159;52.414;9.784;2023-06-14T00:37:21;3.70;;;2.17;;
6251;SDS011;3159;52.414;9.784;2023-06-14T00:39:48;5.37;;;2.50;;
6251;SDS011;3159;52.414;9.784;2023-06-14T00:42:22;3.03;;;2.20;;
6251;SDS011;3159;52.414;9.784;2023-06-14T00:44:50;3.37;;;2.00;;
6251;SDS011;3159;52.414;9.784;2023-06-14T00:47:18;2.93;;;2.53;;
6251;SDS011;3159;52.414;9.784;2023-06-14T00:49:45;5.47;;;2.37;;
6251;SDS011;3159;52.414;9.784;2023-06-14T00:52:13;3.77;;;2.37;;
6251;SDS011;3159;52.414;9.784;2023-06-14T00:54:41;2.57;;;2.00;;
6251;SDS011;3159;52.414;9.784;2023-06-14T00:57:08;3.27;;;2.43;;
6251;SDS011;3159;52.414;9.784;2023-06-14T00:59:37;3.27;;;2.10;;
6251;SDS011;3159;52.414;9.784;2023-06-14T01:02:07;2.37;;;1.97;;
6251;SDS011;3159;52.414;9.784;2023-06-14T01:04:36;3.07;;;2.50;;
6251;SDS011;3159;52.414;9.784;2023-06-14T01:07:06;2.87;;;1.73;;
6251;SDS011;3159;52.414;9.784;2023-06-14T01:09:42;4.43;;;2.10;;
6251;SDS011;3159;52.414;9.784;2023-06-14T01:12:15;3.20;;;2.00;;
6251;SDS011;3159;52.414;9.784;2023-06-14T01:14:49;2.27;;;1.97;;
6251;SDS011;3159;52.414;9.784;2023-06-14T01:17:17;3.17;;;1.93;;
6251;SDS011;3159;52.414;9.784;2023-06-14T01:19:47;2.10;;;2.00;;
6251;SDS011;3159;52.414;9.784;2023-06-14T01:22:14;2.40;;;2.20;;
6251;SDS011;3159;52.414;9.784;2023-06-14T01:24:42;2.27;;;1.93;;
6251;SDS011;3159;52.414;9.784;2023-06-14T01:27:10;5.17;;;2.20;;
6251;SDS011;3159;52.414;9.784;2023-06-14T01:29:38;2.23;;;2.03;;
6251;SDS011;3159;52.414;9.784;2023-06-14T01:32:17;3.70;;;1.77;;
6251;SDS011;3159;52.414;9.784;2023-06-14T01:34:47;2.70;;;1.90;;
6251;SDS011;3159;52.414;9.784;2023-06-14T01:37:14;3.10;;;2.00;;
6251;SDS011;3159;52.414;9.784;2023-06-14T01:39:44;2.33;;;2.00;;
6251;SDS011;3159;52.414;9.784;2023-06-14T01:42:11;3.60;;;2.00;;
6251;SDS011;3159;52.414;9.784;2023-06-14T01:44:40;2.50;;;2.30;;
6251;SDS011;3159;52.414;9.784;2023-06-14T01:47:08;4.77;;;2.10;;
6251;SDS011;3159;52.414;9.784;2023-06-14T01:49:35;4.23;;;2.00;;
6251;SDS011;3159;52.414;9.784;2023-06-14T01:52:04;3.03;;;2.10;;
6251;SDS011;3159;52.414;9.784;2023-06-14T01:54:34;6.30;;;2.03;;
6251;SDS011;3159;52.414;9.784;2023-06-14T01:57:04;4.30;;;1.80;;
6251;SDS011;3159;52.414;9.784;2023-06-14T01:59:32;4.60;;;2.00;;
6251;SDS011;3159;52.414;9.784;2023-06-14T02:02:00;5.00;;;2.17;;
6251;SDS011;3159;52.414;9.784;2023-06-14T02:04:28;2.07;;;1.80;;
6251;SDS011;3159;52.414;9.784;2023-06-14T02:06:55;7.60;;;2.07;;
6251;SDS011;3159;52.414;9.784;2023-06-14T02:09:22;4.47;;;2.07;;
6251;SDS011;3159;52.414;9.784;2023-06-14T02:11:49;2.33;;;1.90;;
6251;SDS011;3159;52.414;9.784;2023-06-14T02:14:17;2.57;;;2.10;;
6251;SDS011;3159;52.414;9.784;2023-06-14T02:16:44;3.77;;;2.03;;
6251;SDS011;3159;52.414;9.784;2023-06-14T02:19:14;2.43;;;2.00;;
6251;SDS011;3159;52.414;9.784;2023-06-14T02:21:40;2.33;;;2.10;;
6251;SDS011;3159;52.414;9.784;2023-06-14T02:24:07;3.17;;;1.90;;
6251;SDS011;3159;52.414;9.784;2023-06-14T02:26:34;2.83;;;2.10;;
6251;SDS011;3159;52.414;9.784;2023-06-14T02:29:02;3.30;;;2.20;;
6251;SDS011;3159;52.414;9.784;2023-06-14T02:31:31;2.80;;;2.27;;
6251;SDS011;3159;52.414;9.784;2023-06-14T02:33:58;2.43;;;2.23;;
6251;SDS011;3159;52.414;9.784;2023-06-14T02:36:25;5.00;;;1.90;;
6251;SDS011;3159;52.414;9.784;2023-06-14T02:38:52;4.00;;;2.30;;
6251;SDS011;3159;52.414;9.784;2023-06-14T02:41:19;2.73;;;1.80;;
6251;SDS011;3159;52.414;9.784;2023-06-14T02:43:46;3.07;;;1.97;;
6251;SDS011;3159;52.414;9.784;2023-06-14T02:46:13;3.90;;;2.20;;
6251;SDS011;3159;52.414;9.784;2023-06-14T02:48:41;3.13;;;2.20;;
6251;SDS011;3159;52.414;9.784;2023-06-14T02:51:08;2.67;;;2.27;;
6251;SDS011;3159;52.414;9.784;2023-06-14T02:53:34;2.97;;;2.20;;
6251;SDS011;3159;52.414;9.784;2023-06-14T02:56:02;4.43;;;2.10;;
6251;SDS011;3159;52.414;9.784;2023-06-14T02:58:30;5.90;;;2.27;;
6251;SDS011;3159;52.414;9.784;2023-06-14T03:00:58;2.37;;;2.17;;
6251;SDS011;3159;52.414;9.784;2023-06-14T03:03:27;2.97;;;2.23;;
6251;SDS011;3159;52.414;9.784;2023-06-14T03:05:56;3.70;;;2.10;;
6251;SDS011;3159;52.414;9.784;2023-06-14T03:08:23;4.70;;;2.30;;
6251;SDS011;3159;52.414;9.784;2023-06-14T03:10:52;2.17;;;1.97;;
6251;SDS011;3159;52.414;9.784;2023-06-14T03:13:21;2.60;;;1.90;;
6251;SDS011;3159;52.414;9.784;2023-06-14T03:15:48;2.33;;;2.00;;
6251;SDS011;3159;52.414;9.784;2023-06-14T03:18:15;2.53;;;2.30;;
6251;SDS011;3159;52.414;9.784;2023-06-14T03:20:42;2.50;;;2.20;;
6251;SDS011;3159;52.414;9.784;2023-06-14T03:23:11;3.90;;;2.53;;
6251;SDS011;3159;52.414;9.784;2023-06-14T03:25:38;3.33;;;2.30;;
6251;SDS011;3159;52.414;9.784;2023-06-14T03:28:07;2.43;;;1.87;;
6251;SDS011;3159;52.414;9.784;2023-06-14T03:30:34;2.33;;;2.10;;
6251;SDS011;3159;52.414;9.784;2023-06-14T03:33:01;3.73;;;2.43;;
6251;SDS011;3159;52.414;9.784;2023-06-14T03:35:28;3.77;;;2.00;;
6251;SDS011;3159;52.414;9.784;2023-06-14T03:37:55;3.80;;;2.17;;
6251;SDS011;3159;52.414;9.784;2023-06-14T03:40:23;6.00;;;2.90;;
6251;SDS011;3159;52.414;9.784;2023-06-14T03:42:52;3.00;;;2.33;;
6251;SDS011;3159;52.414;9.784;2023-06-14T03:45:19;2.67;;;2.30;;
6251;SDS011;3159;52.414;9.784;2023-06-14T03:47:46;4.40;;;2.80;;
6251;SDS011;3159;52.414;9.784;2023-06-14T03:50:13;3.87;;;2.27;;
6251;SDS011;3159;52.414;9.784;2023-06-14T03:52:40;4.50;;;2.30;;
6251;SDS011;3159;52.414;9.784;2023-06-14T03:55:08;3.57;;;2.10;;
6251;SDS011;3159;52.414;9.784;2023-06-14T03:57:39;5.10;;;2.70;;
6251;SDS011;3159;52.414;9.784;2023-06-14T04:00:07;2.37;;;2.17;;
6251;SDS011;3159;52.414;9.784;2023-06-14T04:02:34;2.93;;;2.47;;
6251;SDS011;3159;52.414;9.784;2023-06-14T04:05:02;3.70;;;2.13;;
6251;SDS011;3159;52.414;9.784;2023-06-14T04:07:30;3.27;;;2.33;;
6251;SDS011;3159;52.414;9.784;2023-06-14T04:09:57;2.87;;;2.23;;
6251;SDS011;3159;52.414;9.784;2023-06-14T04:12:24;4.17;;;2.40;;
6251;SDS011;3159;52.414;9.784;2023-06-14T04:14:52;2.97;;;2.57;;
6251;SDS011;3159;52.414;9.784;2023-06-14T04:17:19;2.70;;;2.13;;
6251;SDS011;3159;52.414;9.784;2023-06-14T04:19:45;3.70;;;2.50;;
6251;SDS011;3159;52.414;9.784;2023-06-14T04:22:12;6.70;;;2.50;;
6251;SDS011;3159;52.414;9.784;2023-06-14T04:24:39;6.63;;;2.23;;
6251;SDS011;3159;52.414;9.784;2023-06-14T04:27:07;4.90;;;2.43;;
6251;SDS011;3159;52.414;9.784;2023-06-14T04:29:34;3.40;;;2.27;;
6251;SDS011;3159;52.414;9.784;2023-06-14T04:32:02;2.87;;;2.10;;
6251;SDS011;3159;52.414;9.784;2023-06-14T04:34:31;2.50;;;2.30;;
6251;SDS011;3159;52.414;9.784;2023-06-14T04:36:59;4.70;;;2.57;;
6251;SDS011;3159;52.414;9.784;2023-06-14T04:39:26;3.30;;;2.23;;
6251;SDS011;3159;52.414;9.784;2023-06-14T04:41:53;1.97;;;1.87;;
6251;SDS011;3159;52.414;9.784;2023-06-14T04:44:22;3.50;;;2.03;;
6251;SDS011;3159;52.414;9.784;2023-06-14T04:46:54;3.53;;;1.90;;
6251;SDS011;3159;52.414;9.784;2023-06-14T04:49:25;5.37;;;2.10;;
6251;SDS011;3159;52.414;9.784;2023-06-14T04:51:52;4.63;;;2.17;;
6251;SDS011;3159;52.414;9.784;2023-06-14T04:54:22;3.23;;;2.30;;
6251;SDS011;3159;52.414;9.784;2023-06-14T04:56:50;4.23;;;2.13;;
6251;SDS011;3159;52.414;9.784;2023-06-14T04:59:18;3.33;;;2.10;;
6251;SDS011;3159;52.414;9.784;2023-06-14T05:01:44;5.77;;;2.40;;
6251;SDS011;3159;52.414;9.784;2023-06-14T05:04:13;3.00;;;1.93;;
6251;SDS011;3159;52.414;9.784;2023-06-14T05:06:41;2.70;;;2.17;;
6251;SDS011;3159;52.414;9.784;2023-06-14T05:09:09;2.50;;;1.80;;
6251;SDS011;3159;52.414;9.784;2023-06-14T05:11:36;2.30;;;2.10;;
6251;SDS011;3159;52.414;9.784;2023-06-14T05:14:03;3.73;;;2.00;;
6251;SDS011;3159;52.414;9.784;2023-06-14T05:16:31;2.83;;;1.90;;
6251;SDS011;3159;52.414;9.784;2023-06-14T05:18:57;5.03;;;2.00;;
6251;SDS011;3159;52.414;9.784;2023-06-14T05:21:24;3.53;;;2.10;;
6251;SDS011;3159;52.414;9.784;2023-06-14T05:23:52;3.13;;;2.07;;
6251;SDS011;3159;52.414;9.784;2023-06-14T05:26:20;2.50;;;1.80;;
6251;SDS011;3159;52.414;9.784;2023-06-14T05:28:48;5.83;;;1.83;;
6251;SDS011;3159;52.414;9.784;2023-06-14T05:31:17;3.70;;;2.00;;
6251;SDS011;3159;52.414;9.784;2023-06-14T05:33:44;4.50;;;2.00;;
6251;SDS011;3159;52.414;9.784;2023-06-14T05:36:11;4.60;;;2.17;;
6251;SDS011;3159;52.414;9.784;2023-06-14T05:38:38;1.47;;;1.37;;
6251;SDS011;3159;52.414;9.784;2023-06-14T05:41:06;3.80;;;1.90;;
6251;SDS011;3159;52.414;9.784;2023-06-14T05:43:33;1.97;;;1.87;;
6251;SDS011;3159;52.414;9.784;2023-06-14T05:45:59;3.80;;;1.93;;
6251;SDS011;3159;52.414;9.784;2023-06-14T05:48:26;6.37;;;2.00;;
6251;SDS011;3159;52.414;9.784;2023-06-14T05:50:54;1.80;;;1.70;;
6251;SDS011;3159;52.414;9.784;2023-06-14T05:53:20;2.50;;;1.67;;
6251;SDS011;3159;52.414;9.784;2023-06-14T05:55:47;4.13;;;1.90;;
6251;SDS011;3159;52.414;9.784;2023-06-14T05:58:16;2.93;;;1.57;;
6251;SDS011;3159;52.414;9.784;2023-06-14T06:00:43;3.03;;;1.70;;
6251;SDS011;3159;52.414;9.784;2023-06-14T06:03:10;2.20;;;2.00;;
6251;SDS011;3159;52.414;9.784;2023-06-14T06:05:38;2.23;;;1.80;;
6251;SDS011;3159;52.414;9.784;2023-06-14T06:08:05;5.57;;;1.97;;
6251;SDS011;3159;52.414;9.784;2023-06-14T06:10:31;5.83;;;2.17;;
6251;SDS011;3159;52.414;9.784;2023-06-14T06:12:58;2.10;;;1.90;;
6251;SDS011;3159;52.414;9.784;2023-06-14T06:15:26;2.20;;;1.80;;
6251;SDS011;3159;52.414;9.784;2023-06-14T06:17:53;4.60;;;2.07;;
6251;SDS011;3159;52.414;9.784;2023-06-14T06:20:20;3.90;;;1.70;;
6251;SDS011;3159;52.414;9.784;2023-06-14T06:22:52;2.20;;;1.80;;
6251;SDS011;3159;52.414;9.784;2023-06-14T06:25:19;3.00;;;1.80;;
6251;SDS011;3159;52.414;9.784;2023-06-14T06:27:47;4.43;;;1.80;;
6251;SDS011;3159;52.414;9.784;2023-06-14T06:30:14;2.77;;;1.80;;
6251;SDS011;3159;52.414;9.784;2023-06-14T06:32:43;5.13;;;1.80;;
6251;SDS011;3159;52.414;9.784;2023-06-14T06:35:09;6.90;;;2.10;;
6251;SDS011;3159;52.414;9.784;2023-06-14T06:37:37;3.60;;;1.87;;
6251;SDS011;3159;52.414;9.784;2023-06-14T06:40:05;2.27;;;2.07;;
6251;SDS011;3159;52.414;9.784;2023-06-14T06:42:33;6.43;;;2.23;;
6251;SDS011;3159;52.414;9.784;2023-06-14T06:45:00;3.13;;;1.90;;
6251;SDS011;3159;52.414;9.784;2023-06-14T06:47:27;2.70;;;1.90;;
6251;SDS011;3159;52.414;9.784;2023-06-14T06:49:55;5.03;;;2.00;;
6251;SDS011;3159;52.414;9.784;2023-06-14T06:52:22;4.73;;;2.13;;
6251;SDS011;3159;52.414;9.784;2023-06-14T06:54:49;2.47;;;2.10;;
6251;SDS011;3159;52.414;9.784;2023-06-14T06:57:19;2.10;;;1.83;;
6251;SDS011;3159;52.414;9.784;2023-06-14T06:59:47;4.50;;;2.10;;
6251;SDS011;3159;52.414;9.784;2023-06-14T07:02:14;4.97;;;2.17;;
6251;SDS011;3159;52.414;9.784;2023-06-14T07:04:41;2.33;;;1.67;;
6251;SDS011;3159;52.414;9.784;2023-06-14T07:07:09;3.23;;;1.87;;
6251;SDS011;3159;52.414;9.784;2023-06-14T07:09:36;3.80;;;1.70;;
6251;SDS011;3159;52.414;9.784;2023-06-14T07:12:03;1.83;;;1.70;;
6251;SDS011;3159;52.414;9.784;2023-06-14T07:14:30;2.43;;;1.80;;
6251;SDS011;3159;52.414;9.784;2023-06-14T07:16:57;3.30;;;1.60;;
6251;SDS011;3159;52.414;9.784;2023-06-14T07:19:24;2.53;;;2.20;;
6251;SDS011;3159;52.414;9.784;2023-06-14T07:21:51;4.23;;;1.70;;
6251;SDS011;3159;52.414;9.784;2023-06-14T07:24:19;3.70;;;1.93;;
6251;SDS011;3159;52.414;9.784;2023-06-14T07:26:47;2.27;;;1.50;;
6251;SDS011;3159;52.414;9.784;2023-06-14T07:29:14;3.07;;;1.90;;
6251;SDS011;3159;52.414;9.784;2023-06-14T07:31:41;3.03;;;1.70;;
6251;SDS011;3159;52.414;9.784;2023-06-14T07:34:08;3.07;;;1.60;;
6251;SDS011;3159;52.414;9.784;2023-06-14T07:36:35;4.27;;;1.90;;
6251;SDS011;3159;52.414;9.784;2023-06-14T07:39:03;3.87;;;1.70;;
6251;SDS011;3159;52.414;9.784;2023-06-14T07:41:32;2.37;;;1.93;;
6251;SDS011;3159;52.414;9.784;2023-06-14T07:43:59;2.03;;;1.53;;
6251;SDS011;3159;52.414;9.784;2023-06-14T07:46:26;1.77;;;1.57;;
6251;SDS011;3159;52.414;9.784;2023-06-14T07:48:53;2.33;;;1.80;;
6251;SDS011;3159;52.414;9.784;2023-06-14T07:51:19;2.20;;;2.00;;
6251;SDS011;3159;52.414;9.784;2023-06-14T07:53:47;2.00;;;1.67;;
6251;SDS011;3159;52.414;9.784;2023-06-14T07:56:14;4.57;;;2.00;;
6251;SDS011;3159;52.414;9.784;2023-06-14T07:58:42;6.30;;;2.40;;
6251;SDS011;3159;52.414;9.784;2023-06-14T08:01:09;4.77;;;2.10;;
6251;SDS011;3159;52.414;9.784;2023-06-14T08:03:37;2.63;;;1.90;;
6251;SDS011;3159;52.414;9.784;2023-06-14T08:06:04;3.60;;;1.60;;
6251;SDS011;3159;52.414;9.784;2023-06-14T08:08:32;3.70;;;2.07;;
6251;SDS011;3159;52.414;9.784;2023-06-14T08:10:59;2.73;;;2.20;;
6251;SDS011;3159;52.414;9.784;2023-06-14T08:13:26;3.97;;;2.10;;
6251;SDS011;3159;52.414;9.784;2023-06-14T08:15:54;3.20;;;2.50;;
6251;SDS011;3159;52.414;9.784;2023-06-14T08:18:23;2.57;;;2.03;;
6251;SDS011;3159;52.414;9.784;2023-06-14T08:20:50;3.00;;;2.20;;
6251;SDS011;3159;52.414;9.784;2023-06-14T08:23:17;3.47;;;2.00;;
6251;SDS011;3159;52.414;9.784;2023-06-14T08:25:46;2.17;;;1.83;;
6251;SDS011;3159;52.414;9.784;2023-06-14T08:28:12;2.10;;;1.90;;
6251;SDS011;3159;52.414;9.784;2023-06-14T08:30:39;3.40;;;2.10;;
6251;SDS011;3159;52.414;9.784;2023-06-14T08:33:09;2.30;;;2.00;;
6251;SDS011;3159;52.414;9.784;2023-06-14T08:35:36;2.00;;;1.80;;
6251;SDS011;3159;52.414;9.784;2023-06-14T08:38:04;6.07;;;2.17;;
6251;SDS011;3159;52.414;9.784;2023-06-14T08:40:31;2.70;;;1.63;;
6251;SDS011;3159;52.414;9.784;2023-06-14T08:43:03;3.27;;;2.53;;
6251;SDS011;3159;52.414;9.784;2023-06-14T08:45:30;5.10;;;2.33;;
6251;SDS011;3159;52.414;9.784;2023-06-14T08:47:57;5.33;;;2.60;;
6251;SDS011;3159;52.414;9.784;2023-06-14T08:50:27;2.37;;;2.10;;
6251;SDS011;3159;52.414;9.784;2023-06-14T08:52:55;4.87;;;1.87;;
6251;SDS011;3159;52.414;9.784;2023-06-14T08:55:25;3.60;;;1.93;;
6251;SDS011;3159;52.414;9.784;2023-06-14T08:57:54;2.53;;;2.20;;
6251;SDS011;3159;52.414;9.784;2023-06-14T09:00:23;3.17;;;2.00;;
6251;SDS011;3159;52.414;9.784;2023-06-14T09:02:51;5.23;;;2.00;;
6251;SDS011;3159;52.414;9.784;2023-06-14T09:05:22;2.47;;;2.03;;
6251;SDS011;3159;52.414;9.784;2023-06-14T09:07:51;2.80;;;1.87;;
6251;SDS011;3159;52.414;9.784;2023-06-14T09:10:20;2.40;;;1.93;;
6251;SDS011;3159;52.414;9.784;2023-06-14T09:12:47;1.87;;;1.60;;
6251;SDS011;3159;52.414;9.784;2023-06-14T09:15:14;3.30;;;1.90;;
6251;SDS011;3159;52.414;9.784;2023-06-14T09:17:42;4.93;;;1.77;;
6251;SDS011;3159;52.414;9.784;2023-06-14T09:20:09;2.90;;;1.80;;
6251;SDS011;3159;52.414;9.784;2023-06-14T09:22:38;2.10;;;1.70;;
6251;SDS011;3159;52.414;9.784;2023-06-14T09:25:08;2.30;;;1.90;;
6251;SDS011;3159;52.414;9.784;2023-06-14T09:27:35;2.37;;;1.67;;
6251;SDS011;3159;52.414;9.784;2023-06-14T09:30:05;2.57;;;1.80;;
6251;SDS011;3159;52.414;9.784;2023-06-14T09:32:35;3.57;;;1.70;;
6251;SDS011;3159;52.414;9.784;2023-06-14T09:35:03;4.40;;;1.97;;
6251;SDS011;3159;52.414;9.784;2023-06-14T09:37:31;1.80;;;1.60;;
6251;SDS011;3159;52.414;9.784;2023-06-14T09:39:58;2.17;;;1.80;;
6251;SDS011;3159;52.414;9.784;2023-06-14T09:42:27;3.53;;;1.87;;
6251;SDS011;3159;52.414;9.784;2023-06-14T09:44:55;3.40;;;1.80;;
6251;SDS011;3159;52.414;9.784;2023-06-14T09:47:22;3.07;;;1.53;;
6251;SDS011;3159;52.414;9.784;2023-06-14T09:49:50;2.33;;;1.60;;
6251;SDS011;3159;52.414;9.784;2023-06-14T09:52:19;2.20;;;2.00;;
6251;SDS011;3159;52.414;9.784;2023-06-14T09:54:47;2.13;;;1.53;;
6251;SDS011;3159;52.414;9.784;2023-06-14T09:57:15;3.23;;;1.90;;
6251;SDS011;3159;52.414;9.784;2023-06-14T09:59:44;2.00;;;1.80;;
6251;SDS011;3159;52.414;9.784;2023-06-14T10:02:14;2.57;;;2.27;;
6251;SDS011;3159;52.414;9.784;2023-06-14T10:04:52;5.60;;;2.20;;
6251;SDS011;3159;52.414;9.784;2023-06-14T10:07:25;2.83;;;1.63;;
6251;SDS011;3159;52.414;9.784;2023-06-14T10:09:56;2.87;;;1.93;;
6251;SDS011;3159;52.414;9.784;2023-06-14T10:12:24;2.07;;;1.83;;
6251;SDS011;3159;52.414;9.784;2023-06-14T10:14:53;2.47;;;2.17;;
6251;SDS011;3159;52.414;9.784;2023-06-14T10:17:23;2.37;;;2.10;;
6251;SDS011;3159;52.414;9.784;2023-06-14T10:20:00;4.37;;;2.33;;
6251;SDS011;3159;52.414;9.784;2023-06-14T10:22:47;6.20;;;2.37;;
6251;SDS011;3159;52.414;9.784;2023-06-14T10:25:27;2.50;;;2.10;;
6251;SDS011;3159;52.414;9.784;2023-06-14T10:33:32;3.37;;;2.30;;
6251;SDS011;3159;52.414;9.784;2023-06-14T10:36:09;2.73;;;2.10;;
6251;SDS011;3159;52.414;9.784;2023-06-14T10:38:56;6.37;;;2.33;;
6251;SDS011;3159;52.414;9.784;2023-06-14T10:41:24;7.60;;;2.70;;
6251;SDS011;3159;52.414;9.784;2023-06-14T10:43:53;3.73;;;2.13;;
6251;SDS011;3159;52.414;9.784;2023-06-14T10:46:53;4.13;;;2.33;;
6251;SDS011;3159;52.414;9.784;2023-06-14T10:49:35;6.57;;;2.50;;
6251;SDS011;3159;52.414;9.784;2023-06-14T10:52:07;3.43;;;2.03;;
6251;SDS011;3159;52.414;9.784;2023-06-14T10:57:44;3.13;;;2.20;;
6251;SDS011;3159;52.414;9.784;2023-06-14T11:00:13;2.90;;;2.30;;
6251;SDS011;3159;52.414;9.784;2023-06-14T11:05:58;2.70;;;2.50;;
6251;SDS011;3159;52.414;9.784;2023-06-14T11:11:38;6.37;;;2.60;;
6251;SDS011;3159;52.414;9.784;2023-06-14T11:14:09;6.40;;;3.00;;
6251;SDS011;3159;52.414;9.784;2023-06-14T11:16:36;6.53;;;2.27;;
6251;SDS011;3159;52.414;9.784;2023-06-14T11:19:03;4.53;;;2.40;;
6251;SDS011;3159;52.414;9.784;2023-06-14T11:21:33;3.80;;;2.37;;
6251;SDS011;3159;52.414;9.784;2023-06-14T11:23:59;6.83;;;2.33;;
6251;SDS011;3159;52.414;9.784;2023-06-14T11:26:26;4.13;;;2.37;;
6251;SDS011;3159;52.414;9.784;2023-06-14T11:28:57;7.13;;;2.40;;
6251;SDS011;3159;52.414;9.784;2023-06-14T11:31:25;4.57;;;2.23;;
6251;SDS011;3159;52.414;9.784;2023-06-14T11:33:53;2.60;;;2.40;;
6251;SDS011;3159;52.414;9.784;2023-06-14T11:36:21;5.10;;;2.40;;
6251;SDS011;3159;52.414;9.784;2023-06-14T11:38:50;3.50;;;2.40;;
6251;SDS011;3159;52.414;9.784;2023-06-14T11:41:24;4.73;;;2.27;;
6251;SDS011;3159;52.414;9.784;2023-06-14T11:43:52;4.27;;;2.40;;
6251;SDS011;3159;52.414;9.784;2023-06-14T11:46:19;2.63;;;2.40;;
6251;SDS011;3159;52.414;9.784;2023-06-14T11:48:49;6.43;;;2.47;;
6251;SDS011;3159;52.414;9.784;2023-06-14T11:51:15;4.70;;;2.23;;
6251;SDS011;3159;52.414;9.784;2023-06-14T11:53:45;3.47;;;2.40;;
6251;SDS011;3159;52.414;9.784;2023-06-14T11:56:13;5.47;;;2.87;;
6251;SDS011;3159;52.414;9.784;2023-06-14T11:58:42;5.17;;;2.80;;
6251;SDS011;3159;52.414;9.784;2023-06-14T12:01:09;4.00;;;2.57;;
6251;SDS011;3159;52.414;9.784;2023-06-14T12:03:40;4.00;;;2.67;;
6251;SDS011;3159;52.414;9.784;2023-06-14T12:06:14;5.50;;;2.73;;
6251;SDS011;3159;52.414;9.784;2023-06-14T12:08:43;6.97;;;2.90;;
6251;SDS011;3159;52.414;9.784;2023-06-14T12:11:11;4.47;;;2.57;;
6251;SDS011;3159;52.414;9.784;2023-06-14T12:13:40;4.13;;;3.10;;
6251;SDS011;3159;52.414;9.784;2023-06-14T12:16:07;7.50;;;3.30;;
6251;SDS011;3159;52.414;9.784;2023-06-14T12:18:35;3.43;;;2.33;;
6251;SDS011;3159;52.414;9.784;2023-06-14T12:21:03;7.47;;;3.00;;
6251;SDS011;3159;52.414;9.784;2023-06-14T12:23:44;3.27;;;2.80;;
6251;SDS011;3159;52.414;9.784;2023-06-14T12:26:15;3.73;;;2.70;;
6251;SDS011;3159;52.414;9.784;2023-06-14T12:28:44;4.30;;;3.10;;
6251;SDS011;3159;52.414;9.784;2023-06-14T12:31:12;4.53;;;2.97;;
6251;SDS011;3159;52.414;9.784;2023-06-14T12:33:40;3.87;;;2.70;;
6251;SDS011;3159;52.414;9.784;2023-06-14T12:36:07;7.03;;;3.23;;
6251;SDS011;3159;52.414;9.784;2023-06-14T12:38:35;7.33;;;3.07;;
6251;SDS011;3159;52.414;9.784;2023-06-14T12:41:02;5.03;;;2.97;;
6251;SDS011;3159;52.414;9.784;2023-06-14T12:43:29;3.90;;;2.60;;
6251;SDS011;3159;52.414;9.784;2023-06-14T12:45:57;6.13;;;3.43;;
6251;SDS011;3159;52.414;9.784;2023-06-14T12:48:24;3.03;;;2.80;;
6251;SDS011;3159;52.414;9.784;2023-06-14T12:50:52;3.60;;;2.83;;
6251;SDS011;3159;52.414;9.784;2023-06-14T12:53:19;4.77;;;2.90;;
6251;SDS011;3159;52.414;9.784;2023-06-14T12:55:46;5.80;;;2.90;;
6251;SDS011;3159;52.414;9.784;2023-06-14T12:58:13;4.50;;;3.10;;
6251;SDS011;3159;52.414;9.784;2023-06-14T13:00:42;7.57;;;3.37;;
6251;SDS011;3159;52.414;9.784;2023-06-14T13:03:10;4.37;;;2.70;;
6251;SDS011;3159;52.414;9.784;2023-06-14T13:05:37;8.70;;;2.70;;
6251;SDS011;3159;52.414;9.784;2023-06-14T13:08:06;4.33;;;3.20;;
6251;SDS011;3159;52.414;9.784;2023-06-14T13:10:34;8.20;;;3.20;;
6251;SDS011;3159;52.414;9.784;2023-06-14T13:13:01;4.20;;;3.13;;
6251;SDS011;3159;52.414;9.784;2023-06-14T13:15:28;3.93;;;2.90;;
6251;SDS011;3159;52.414;9.784;2023-06-14T13:17:54;4.07;;;3.07;;
6251;SDS011;3159;52.414;9.784;2023-06-14T13:20:23;3.43;;;3.10;;
6251;SDS011;3159;52.414;9.784;2023-06-14T13:22:49;3.00;;;2.70;;
6251;SDS011;3159;52.414;9.784;2023-06-14T13:25:16;4.10;;;3.13;;
6251;SDS011;3159;52.414;9.784;2023-06-14T13:27:43;5.50;;;3.20;;
6251;SDS011;3159;52.414;9.784;2023-06-14T13:30:11;4.73;;;3.00;;
6251;SDS011;3159;52.414;9.784;2023-06-14T13:32:38;5.37;;;3.00;;
6251;SDS011;3159;52.414;9.784;2023-06-14T13:35:05;4.60;;;3.03;;
6251;SDS011;3159;52.414;9.784;2023-06-14T13:37:34;4.90;;;3.03;;
6251;SDS011;3159;52.414;9.784;2023-06-14T13:40:01;5.90;;;2.80;;
6251;SDS011;3159;52.414;9.784;2023-06-14T13:42:28;5.37;;;3.23;;
6251;SDS011;3159;52.414;9.784;2023-06-14T13:44:56;3.07;;;2.80;;
6251;SDS011;3159;52.414;9.784;2023-06-14T13:47:23;6.20;;;3.03;;
6251;SDS011;3159;52.414;9.784;2023-06-14T13:49:50;12.63;;;3.10;;
6251;SDS011;3159;52.414;9.784;2023-06-14T13:52:17;4.03;;;3.13;;
6251;SDS011;3159;52.414;9.784;2023-06-14T13:54:45;6.83;;;2.80;;
6251;SDS011;3159;52.414;9.784;2023-06-14T13:57:12;6.20;;;2.80;;
6251;SDS011;3159;52.414;9.784;2023-06-14T13:59:38;5.83;;;2.87;;
6251;SDS011;3159;52.414;9.784;2023-06-14T14:02:05;7.03;;;3.20;;
6251;SDS011;3159;52.414;9.784;2023-06-14T14:04:33;5.57;;;2.87;;
6251;SDS011;3159;52.414;9.784;2023-06-14T14:07:00;4.30;;;3.10;;
6251;SDS011;3159;52.414;9.784;2023-06-14T14:09:27;5.00;;;3.10;;
6251;SDS011;3159;52.414;9.784;2023-06-14T14:11:55;4.07;;;3.07;;
6251;SDS011;3159;52.414;9.784;2023-06-14T14:14:22;5.40;;;3.03;;
6251;SDS011;3159;52.414;9.784;2023-06-14T14:16:49;6.77;;;3.40;;
6251;SDS011;3159;52.414;9.784;2023-06-14T14:19:18;4.30;;;3.07;;
6251;SDS011;3159;52.414;9.784;2023-06-14T14:21:45;3.90;;;3.10;;
6251;SDS011;3159;52.414;9.784;2023-06-14T14:24:12;4.33;;;2.83;;
6251;SDS011;3159;52.414;9.784;2023-06-14T14:26:39;7.10;;;2.90;;
6251;SDS011;3159;52.414;9.784;2023-06-14T14:29:07;6.23;;;3.07;;
6251;SDS011;3159;52.414;9.784;2023-06-14T14:31:36;4.03;;;2.77;;
6251;SDS011;3159;52.414;9.784;2023-06-14T14:34:03;7.17;;;3.20;;
6251;SDS011;3159;52.414;9.784;2023-06-14T14:36:30;6.43;;;3.17;;
6251;SDS011;3159;52.414;9.784;2023-06-14T14:38:58;7.80;;;3.40;;
6251;SDS011;3159;52.414;9.784;2023-06-14T14:41:25;5.50;;;3.10;;
6251;SDS011;3159;52.414;9.784;2023-06-14T14:43:52;5.60;;;3.20;;
6251;SDS011;3159;52.414;9.784;2023-06-14T14:46:20;4.43;;;3.03;;
6251;SDS011;3159;52.414;9.784;2023-06-14T14:48:47;3.60;;;3.30;;
6251;SDS011;3159;52.414;9.784;2023-06-14T14:51:13;4.90;;;2.93;;
6251;SDS011;3159;52.414;9.784;2023-06-14T14:53:40;3.13;;;2.83;;
6251;SDS011;3159;52.414;9.784;2023-06-14T14:56:07;5.53;;;3.13;;
6251;SDS011;3159;52.414;9.784;2023-06-14T14:58:34;8.97;;;3.10;;
6251;SDS011;3159;52.414;9.784;2023-06-14T15:01:01;6.73;;;3.47;;
6251;SDS011;3159;52.414;9.784;2023-06-14T15:03:29;3.33;;;3.03;;
6251;SDS011;3159;52.414;9.784;2023-06-14T15:05:56;5.30;;;3.10;;
6251;SDS011;3159;52.414;9.784;2023-06-14T15:08:23;4.10;;;3.00;;
6251;SDS011;3159;52.414;9.784;2023-06-14T15:10:49;6.20;;;3.13;;
6251;SDS011;3159;52.414;9.784;2023-06-14T15:13:16;5.43;;;2.80;;
6251;SDS011;3159;52.414;9.784;2023-06-14T15:15:43;3.40;;;2.93;;
6251;SDS011;3159;52.414;9.784;2023-06-14T15:18:10;6.97;;;2.93;;
6251;SDS011;3159;52.414;9.784;2023-06-14T15:20:38;8.83;;;3.30;;
6251;SDS011;3159;52.414;9.784;2023-06-14T15:23:06;3.87;;;2.90;;
6251;SDS011;3159;52.414;9.784;2023-06-14T15:25:33;7.57;;;3.40;;
6251;SDS011;3159;52.414;9.784;2023-06-14T15:28:00;5.63;;;3.40;;
6251;SDS011;3159;52.414;9.784;2023-06-14T15:30:31;6.07;;;3.30;;
6251;SDS011;3159;52.414;9.784;2023-06-14T15:32:58;4.90;;;3.17;;
6251;SDS011;3159;52.414;9.784;2023-06-14T15:35:24;7.97;;;3.27;;